Time;durP1;ratioP1;P1;durP2;ratioP2;P2;SDS_P1;SDS_P2;PMS_P1;PMS_P2;Temp;Humidity;BMP_temperature;BMP_pressure;BME280_temperature;BME280_humidity;BME280_pressure;Samples;Min_cycle;Max_cycle;Signal;HPM_P1;HPM_P2
2021/11/20 00:01:47;;;;;;;29.73;21.50;;;10.40;99.90;;;;;;5014420;28;20419;-60
2021/11/20 00:04:16;;;;;;;30.50;22.80;;;10.40;99.90;;;;;;5013838;28;20993;-60
2021/11/20 00:06:49;;;;;;;30.70;22.13;;;10.40;99.90;;;;;;5014355;28;20465;-62
2021/11/20 00:09:21;;;;;;;35.43;21.13;;;10.40;99.90;;;;;;5013639;28;20888;-61
2021/11/20 00:11:52;;;;;;;33.03;21.23;;;10.40;99.90;;;;;;5014394;28;20453;-59
2021/11/20 00:14:22;;;;;;;28.87;20.90;;;10.40;99.90;;;;;;5013276;28;20431;-59
2021/11/20 00:16:52;;;;;;;31.53;21.83;;;10.40;99.90;;;;;;5013983;28;20453;-61
2021/11/20 00:19:21;;;;;;;29.77;20.70;;;10.40;99.90;;;;;;5013458;28;20419;-60
2021/11/20 00:21:55;;;;;;;30.43;21.13;;;10.40;99.90;;;;;;5013655;28;20467;-60
2021/11/20 00:24:27;;;;;;;32.20;21.73;;;10.40;99.90;;;;;;5013327;28;20476;-60
2021/11/20 00:26:57;;;;;;;33.17;21.37;;;10.40;99.90;;;;;;5013626;28;20527;-61
2021/11/20 00:29:38;;;;;;;30.37;20.40;;;10.40;99.90;;;;;;4995806;28;20437;-61
2021/11/20 00:32:10;;;;;;;33.77;22.33;;;10.30;99.90;;;;;;4996308;28;20431;-60
2021/11/20 00:34:40;;;;;;;31.30;20.87;;;10.30;99.90;;;;;;5011697;28;20854;-59
2021/11/20 00:37:10;;;;;;;31.63;20.87;;;10.30;99.90;;;;;;5013831;28;20464;-61
2021/11/20 00:39:42;;;;;;;33.57;21.20;;;10.30;99.90;;;;;;5013339;28;20462;-61
2021/11/20 00:42:12;;;;;;;31.93;21.17;;;10.30;99.90;;;;;;5013696;28;20465;-60
2021/11/20 00:44:46;;;;;;;29.67;21.13;;;10.40;99.90;;;;;;5012049;28;20468;-60
2021/11/20 00:47:15;;;;;;;31.83;21.60;;;10.30;99.90;;;;;;5028314;28;20862;-61
2021/11/20 00:49:45;;;;;;;33.00;21.83;;;10.40;99.90;;;;;;5028048;28;20559;-61
2021/11/20 00:52:15;;;;;;;32.03;21.30;;;10.30;99.90;;;;;;5012314;28;20796;-59
2021/11/20 00:54:43;;;;;;;28.83;20.33;;;10.30;99.90;;;;;;5012553;28;20464;-60
2021/11/20 00:57:13;;;;;;;30.17;20.73;;;10.30;99.90;;;;;;4999735;28;20461;-61
2021/11/20 00:59:42;;;;;;;30.77;20.03;;;10.30;99.90;;;;;;5011722;28;20462;-61
2021/11/20 01:02:11;;;;;;;31.30;19.40;;;10.30;99.90;;;;;;5013161;28;20426;-60
2021/11/20 01:04:41;;;;;;;27.60;18.90;;;10.30;99.90;;;;;;5012257;28;21003;-60
2021/11/20 01:07:10;;;;;;;33.13;21.50;;;10.30;99.90;;;;;;4979099;28;20539;-61
2021/11/20 01:09:44;;;;;;;26.77;19.50;;;10.20;99.90;;;;;;5011424;28;20459;-60
2021/11/20 01:12:15;;;;;;;28.77;20.43;;;10.30;99.90;;;;;;4999906;28;20586;-59
2021/11/20 01:14:49;;;;;;;30.60;20.40;;;10.30;99.90;;;;;;4994843;28;20485;-59
2021/11/20 01:17:19;;;;;;;31.07;20.87;;;10.30;99.90;;;;;;4995330;28;20441;-60
2021/11/20 01:19:48;;;;;;;32.03;21.73;;;10.20;99.90;;;;;;5011353;28;20469;-62
2021/11/20 01:22:25;;;;;;;31.30;19.40;;;10.20;99.90;;;;;;4995527;28;20443;-60
2021/11/20 01:25:20;;;;;;;30.77;19.83;;;10.20;99.90;;;;;;4992440;28;20523;-59
2021/11/20 01:28:03;;;;;;;32.53;20.47;;;10.20;99.90;;;;;;5012419;28;20458;-61
2021/11/20 01:30:49;;;;;;;29.47;19.70;;;10.20;99.90;;;;;;4994609;28;20900;-61
2021/11/20 01:33:24;;;;;;;26.80;18.90;;;10.20;99.90;;;;;;4995113;28;20437;-59
2021/11/20 01:35:54;;;;;;;30.87;20.30;;;10.20;99.90;;;;;;5010633;28;20468;-61
2021/11/20 01:38:22;;;;;;;32.53;19.40;;;10.20;99.90;;;;;;5012493;28;20441;-60
2021/11/20 01:40:55;;;;;;;24.77;17.27;;;10.20;99.90;;;;;;5010737;28;20829;-60
2021/11/20 01:43:41;;;;;;;30.93;18.43;;;10.10;99.90;;;;;;5011327;28;20480;-59
2021/11/20 01:46:15;;;;;;;28.33;18.07;;;10.10;99.90;;;;;;5018898;28;20537;-61
2021/11/20 01:49:06;;;;;;;28.97;19.30;;;10.10;99.90;;;;;;5014520;28;20975;-61
2021/11/20 01:51:38;;;;;;;25.17;17.23;;;10.10;99.90;;;;;;5027475;28;20478;-60
2021/11/20 01:54:26;;;;;;;27.30;20.07;;;10.10;99.90;;;;;;5010904;28;20434;-60
2021/11/20 01:57:18;;;;;;;27.40;18.77;;;10.10;99.90;;;;;;5011509;28;20469;-62
2021/11/20 02:00:00;;;;;;;30.00;19.77;;;10.10;99.90;;;;;;5010594;28;20463;-61
2021/11/20 02:02:34;;;;;;;34.03;20.40;;;10.10;99.90;;;;;;5012279;28;20436;-59
2021/11/20 02:05:22;;;;;;;29.10;19.57;;;10.10;99.90;;;;;;5010264;28;20496;-59
2021/11/20 02:08:02;;;;;;;25.27;18.37;;;10.10;99.90;;;;;;5010753;28;20472;-60
2021/11/20 02:10:35;;;;;;;28.13;18.60;;;10.10;99.90;;;;;;5010358;28;20556;-61
2021/11/20 02:13:08;;;;;;;30.60;18.73;;;10.10;99.90;;;;;;4994688;28;20486;-59
2021/11/20 02:15:41;;;;;;;27.10;18.17;;;10.10;99.90;;;;;;5009960;28;20472;-59
2021/11/20 02:18:11;;;;;;;25.37;17.63;;;10.10;99.90;;;;;;4994717;28;20853;-62
2021/11/20 02:20:43;;;;;;;28.07;18.93;;;10.10;99.90;;;;;;5009951;28;21053;-61
2021/11/20 02:23:26;;;;;;;27.50;18.33;;;10.10;99.90;;;;;;5010861;28;20466;-59
2021/11/20 02:25:58;;;;;;;26.93;17.50;;;10.10;99.90;;;;;;5010965;28;20479;-59
2021/11/20 02:28:37;;;;;;;27.27;16.40;;;10.20;99.90;;;;;;4994804;28;20867;-61
2021/11/20 02:31:19;;;;;;;25.40;17.97;;;10.20;99.90;;;;;;5010200;28;20465;-63
2021/11/20 02:33:50;;;;;;;26.70;17.50;;;10.20;99.90;;;;;;5012146;28;20436;-59
2021/11/20 02:36:22;;;;;;;26.50;17.57;;;10.20;99.90;;;;;;5021058;28;20569;-61
2021/11/20 02:38:58;;;;;;;26.37;17.13;;;10.30;99.90;;;;;;5027132;28;20512;-61
2021/11/20 02:41:29;;;;;;;21.57;16.47;;;10.30;99.90;;;;;;5010107;28;20499;-60
2021/11/20 02:44:00;;;;;;;23.57;16.67;;;10.20;99.90;;;;;;4994575;28;20432;-59
2021/11/20 02:46:33;;;;;;;25.17;17.07;;;10.20;99.90;;;;;;5019753;28;20504;-61
2021/11/20 02:49:04;;;;;;;18.00;14.23;;;10.30;99.90;;;;;;5012832;28;20982;-62
2021/11/20 02:51:37;;;;;;;22.47;15.40;;;10.20;99.90;;;;;;5010218;28;20471;-60
2021/11/20 02:54:10;;;;;;;23.93;14.90;;;10.30;99.90;;;;;;5010241;28;20526;-60
2021/11/20 02:56:43;;;;;;;26.70;16.37;;;10.30;99.90;;;;;;5011757;28;20466;-62
2021/11/20 02:59:13;;;;;;;21.83;15.50;;;10.30;99.90;;;;;;5010090;28;20471;-61
2021/11/20 03:01:49;;;;;;;20.63;15.53;;;10.30;99.90;;;;;;5010464;28;20535;-60
2021/11/20 03:04:20;;;;;;;23.37;15.07;;;10.20;99.90;;;;;;5009595;28;20444;-59
2021/11/20 03:06:52;;;;;;;22.00;15.50;;;10.20;99.90;;;;;;5023038;28;20543;-61
2021/11/20 03:09:23;;;;;;;21.03;14.87;;;10.20;99.90;;;;;;5013737;28;20448;-61
2021/11/20 03:11:52;;;;;;;22.00;14.57;;;10.30;99.90;;;;;;5014164;28;20447;-59
2021/11/20 03:14:22;;;;;;;20.20;14.93;;;10.30;99.90;;;;;;5013284;28;20937;-60
2021/11/20 03:16:54;;;;;;;22.73;15.93;;;10.30;99.90;;;;;;4997532;28;20497;-62
2021/11/20 03:19:27;;;;;;;20.17;15.67;;;10.30;99.90;;;;;;4997349;28;20780;-62
2021/11/20 03:21:58;;;;;;;24.47;16.47;;;10.20;99.90;;;;;;5015359;28;20452;-60
2021/11/20 03:24:28;;;;;;;22.57;17.00;;;10.20;99.90;;;;;;5013190;28;20915;-60
2021/11/20 03:26:59;;;;;;;23.37;15.60;;;10.30;99.90;;;;;;5013487;28;20477;-60
2021/11/20 03:29:31;;;;;;;26.13;16.50;;;10.20;99.90;;;;;;4996897;28;20468;-61
2021/11/20 03:32:01;;;;;;;25.57;16.50;;;10.20;99.90;;;;;;5013644;28;20440;-60
2021/11/20 03:34:33;;;;;;;24.87;15.83;;;10.20;99.90;;;;;;5014178;28;20958;-60
2021/11/20 03:37:02;;;;;;;23.13;16.40;;;10.30;99.90;;;;;;5008637;28;20520;-61
2021/11/20 03:39:35;;;;;;;22.13;15.67;;;10.20;99.90;;;;;;5013122;28;20468;-61
2021/11/20 03:42:06;;;;;;;20.60;15.00;;;10.20;99.90;;;;;;5014722;28;20449;-59
2021/11/20 03:44:38;;;;;;;21.33;15.37;;;10.20;99.90;;;;;;5012865;28;20460;-60
2021/11/20 03:47:09;;;;;;;20.80;14.20;;;10.20;99.90;;;;;;5028483;28;20471;-61
2021/11/20 03:49:40;;;;;;;20.07;14.00;;;10.20;99.90;;;;;;5016243;28;20456;-62
2021/11/20 03:52:08;;;;;;;19.23;14.10;;;10.20;99.90;;;;;;5009235;28;20442;-59
2021/11/20 03:54:37;;;;;;;19.27;14.47;;;10.20;99.90;;;;;;4996036;28;20472;-59
2021/11/20 03:57:06;;;;;;;21.60;14.43;;;10.20;99.90;;;;;;5013514;28;20470;-61
2021/11/20 03:59:34;;;;;;;21.70;14.83;;;10.20;99.90;;;;;;5012851;28;20472;-61
2021/11/20 04:02:04;;;;;;;21.57;15.10;;;10.20;99.90;;;;;;4996980;28;20418;-61
2021/11/20 04:04:35;;;;;;;21.90;14.97;;;10.20;99.90;;;;;;5014737;28;20475;-60
2021/11/20 04:07:04;;;;;;;19.53;13.40;;;10.20;99.90;;;;;;5007985;28;20469;-60
2021/11/20 04:09:32;;;;;;;20.43;14.73;;;10.20;99.90;;;;;;5012497;28;20467;-61
2021/11/20 04:12:09;;;;;;;25.77;15.43;;;10.20;99.90;;;;;;4999884;28;20452;-61
2021/11/20 04:14:39;;;;;;;24.83;14.63;;;10.20;99.90;;;;;;5012097;28;20827;-59
2021/11/20 04:17:08;;;;;;;21.00;14.53;;;10.20;99.90;;;;;;4996504;28;20445;-61
2021/11/20 04:19:38;;;;;;;21.57;14.80;;;10.20;99.90;;;;;;5012877;28;20464;-61
2021/11/20 04:22:06;;;;;;;21.50;15.67;;;10.20;99.90;;;;;;4996685;28;20980;-60
2021/11/20 04:24:36;;;;;;;20.87;14.57;;;10.20;99.90;;;;;;5012973;28;20464;-59
2021/11/20 04:27:04;;;;;;;18.93;14.50;;;10.20;99.90;;;;;;5013509;28;20528;-60
2021/11/20 04:30:00;;;;;;;22.43;14.47;;;10.20;99.90;;;;;;5011840;28;20472;-61
2021/11/20 04:32:30;;;;;;;18.20;13.47;;;10.20;99.90;;;;;;4996378;28;20431;-59
2021/11/20 04:34:59;;;;;;;21.70;15.50;;;10.20;99.90;;;;;;5013153;28;20466;-59
2021/11/20 04:37:27;;;;;;;20.57;14.50;;;10.20;99.90;;;;;;5012622;28;20447;-60
2021/11/20 04:39:59;;;;;;;20.57;13.97;;;10.30;99.90;;;;;;5012008;28;20465;-60
2021/11/20 04:42:28;;;;;;;19.03;15.03;;;10.20;99.90;;;;;;5012378;28;20537;-60
2021/11/20 04:44:57;;;;;;;22.70;14.97;;;10.20;99.90;;;;;;5011366;28;20471;-60
2021/11/20 04:47:26;;;;;;;25.00;15.40;;;10.20;99.90;;;;;;5026521;28;20473;-61
2021/11/20 04:49:54;;;;;;;22.73;15.30;;;10.20;99.90;;;;;;5012971;28;20466;-61
2021/11/20 04:52:24;;;;;;;20.73;15.07;;;10.20;99.90;;;;;;5012358;28;20447;-61
2021/11/20 04:54:53;;;;;;;18.83;13.43;;;10.20;99.90;;;;;;5011386;28;20457;-60
2021/11/20 04:57:31;;;;;;;20.63;15.10;;;10.20;99.90;;;;;;5012138;28;21323;-61
2021/11/20 05:00:00;;;;;;;23.23;13.47;;;10.20;99.90;;;;;;5011777;28;20494;-61
2021/11/20 05:02:32;;;;;;;17.33;12.80;;;10.20;99.90;;;;;;4979256;28;20483;-60
2021/11/20 05:05:01;;;;;;;23.03;15.60;;;10.20;99.90;;;;;;5011357;28;20511;-60
2021/11/20 05:07:30;;;;;;;20.07;14.40;;;10.20;99.90;;;;;;5013768;28;20504;-62
2021/11/20 05:09:59;;;;;;;22.50;14.47;;;10.20;99.90;;;;;;5032495;28;20877;-61
2021/11/20 05:12:28;;;;;;;18.20;13.77;;;10.20;99.90;;;;;;5005836;28;20990;-61
2021/11/20 05:15:08;;;;;;;17.93;13.30;;;10.20;99.90;;;;;;5011027;28;20453;-59
2021/11/20 05:17:36;;;;;;;21.90;14.43;;;10.20;99.90;;;;;;5011576;28;20462;-60
2021/11/20 05:20:08;;;;;;;17.40;13.37;;;10.20;99.90;;;;;;5011339;28;20462;-61
2021/11/20 05:22:38;;;;;;;20.27;13.53;;;10.20;99.90;;;;;;5002995;28;20478;-60
2021/11/20 05:25:07;;;;;;;18.67;15.03;;;10.20;99.90;;;;;;5012172;28;20464;-60
2021/11/20 05:27:36;;;;;;;19.37;14.37;;;10.20;99.90;;;;;;4995159;28;20467;-61
2021/11/20 05:30:13;;;;;;;18.77;13.70;;;10.20;99.90;;;;;;5011019;28;20458;-61
2021/11/20 05:32:42;;;;;;;19.10;13.73;;;10.20;99.90;;;;;;5011586;28;20442;-60
2021/11/20 05:35:13;;;;;;;18.33;13.23;;;10.20;99.90;;;;;;4994629;28;20468;-61
2021/11/20 05:37:42;;;;;;;20.03;14.23;;;10.20;99.90;;;;;;5012429;28;20445;-60
2021/11/20 05:40:15;;;;;;;17.20;13.23;;;10.20;99.90;;;;;;5011039;28;20551;-61
2021/11/20 05:42:44;;;;;;;20.47;13.83;;;10.20;99.90;;;;;;5011118;28;20441;-60
2021/11/20 05:45:13;;;;;;;20.50;15.80;;;10.20;99.90;;;;;;5010655;28;20887;-59
2021/11/20 05:47:41;;;;;;;22.53;14.37;;;10.20;99.90;;;;;;5014259;28;20478;-61
2021/11/20 05:50:11;;;;;;;21.87;15.17;;;10.20;99.90;;;;;;5014058;28;20804;-61
2021/11/20 05:52:39;;;;;;;27.87;15.00;;;10.20;99.90;;;;;;5018825;28;20816;-60
2021/11/20 05:55:09;;;;;;;20.70;14.37;;;10.10;99.90;;;;;;4993878;28;20994;-60
2021/11/20 05:57:39;;;;;;;27.00;18.10;;;10.10;99.90;;;;;;5010826;28;20476;-60
2021/11/20 06:00:16;;;;;;;20.60;15.00;;;10.10;99.90;;;;;;4994391;28;20457;-61
2021/11/20 06:02:55;;;;;;;22.63;15.60;;;10.10;99.90;;;;;;5012287;28;20437;-60
2021/11/20 06:05:38;;;;;;;21.97;16.20;;;10.10;99.90;;;;;;5009938;28;20927;-60
2021/11/20 06:08:08;;;;;;;21.07;15.93;;;10.10;99.90;;;;;;4994439;28;20992;-60
2021/11/20 06:10:39;;;;;;;24.17;16.87;;;10.10;99.90;;;;;;5010564;28;20462;-60
2021/11/20 06:13:11;;;;;;;26.50;19.37;;;10.00;99.90;;;;;;5011372;28;20448;-59
2021/11/20 06:15:47;;;;;;;21.37;14.60;;;10.10;99.90;;;;;;5010335;28;20833;-59
2021/11/20 06:18:16;;;;;;;23.33;15.30;;;10.10;99.90;;;;;;5012055;28;20424;-61
2021/11/20 06:20:45;;;;;;;20.50;14.67;;;10.00;99.90;;;;;;5010343;28;20508;-61
2021/11/20 06:23:27;;;;;;;22.87;16.20;;;10.10;99.90;;;;;;5010965;28;20851;-60
2021/11/20 06:26:02;;;;;;;23.40;15.30;;;10.10;99.90;;;;;;5010019;28;21065;-60
2021/11/20 06:28:30;;;;;;;22.10;15.40;;;10.10;99.90;;;;;;5008686;28;20481;-61
2021/11/20 06:31:01;;;;;;;25.30;16.70;;;10.20;99.90;;;;;;5009972;28;20464;-61
2021/11/20 06:33:33;;;;;;;22.20;16.47;;;10.10;99.90;;;;;;4994525;28;20518;-60
2021/11/20 06:36:26;;;;;;;20.90;15.57;;;10.10;99.90;;;;;;5011504;28;20914;-59
2021/11/20 06:39:05;;;;;;;22.60;15.50;;;10.10;99.90;;;;;;5010764;28;20426;-60
2021/11/20 06:41:36;;;;;;;24.43;16.73;;;10.10;99.90;;;;;;5010596;28;20507;-61
2021/11/20 06:44:05;;;;;;;22.20;14.73;;;10.10;99.90;;;;;;5012988;28;20833;-59
2021/11/20 06:46:34;;;;;;;21.10;15.53;;;10.10;99.90;;;;;;5024747;28;20461;-59
2021/11/20 06:49:03;;;;;;;21.07;15.20;;;10.10;99.90;;;;;;5034349;28;20525;-61
2021/11/20 06:51:40;;;;;;;23.03;16.97;;;10.10;99.90;;;;;;4998011;28;20483;-60
2021/11/20 06:54:27;;;;;;;21.97;15.67;;;10.10;99.90;;;;;;4997225;28;20432;-60
2021/11/20 06:57:36;;;;;;;20.60;13.67;;;10.10;99.90;;;;;;4998060;28;20477;-60
2021/11/20 07:00:34;;;;;;;18.70;13.80;;;10.10;99.90;;;;;;5007824;28;20534;-60
2021/11/20 07:03:12;;;;;;;19.77;14.93;;;10.00;99.90;;;;;;5017239;28;20952;-60
2021/11/20 07:05:45;;;;;;;18.63;13.87;;;10.00;99.90;;;;;;5012998;28;20473;-58
2021/11/20 07:08:14;;;;;;;18.80;14.17;;;10.00;99.90;;;;;;5014199;28;20464;-59
2021/11/20 07:10:43;;;;;;;19.43;14.07;;;10.10;99.90;;;;;;5014849;28;20464;-60
2021/11/20 07:13:14;;;;;;;20.20;13.63;;;10.10;99.90;;;;;;5015170;28;20460;-60
2021/11/20 07:15:44;;;;;;;16.50;12.23;;;10.10;99.90;;;;;;5023157;28;20518;-59
2021/11/20 07:18:13;;;;;;;18.17;12.50;;;10.20;99.90;;;;;;5023631;28;20439;-59
2021/11/20 07:21:11;;;;;;;17.93;13.87;;;10.10;99.90;;;;;;5024839;28;20577;-59
2021/11/20 07:24:06;;;;;;;15.73;11.77;;;10.20;99.90;;;;;;5028791;28;20448;-59
2021/11/20 07:26:35;;;;;;;17.40;12.10;;;10.20;99.90;;;;;;5013522;28;21013;-59
2021/11/20 07:29:06;;;;;;;16.00;11.13;;;10.20;99.90;;;;;;5018994;28;20467;-59
2021/11/20 07:31:56;;;;;;;14.60;11.40;;;10.10;99.90;;;;;;5033491;28;20459;-61
2021/11/20 07:34:27;;;;;;;14.03;10.00;;;10.20;99.90;;;;;;5006437;28;20491;-60
2021/11/20 07:36:59;;;;;;;20.87;10.83;;;10.20;99.90;;;;;;5018592;28;20457;-60
2021/11/20 07:39:30;;;;;;;16.53;11.60;;;10.10;99.90;;;;;;5016638;28;20956;-59
2021/11/20 07:41:59;;;;;;;15.77;11.40;;;10.20;99.90;;;;;;5027130;28;20446;-60
2021/11/20 07:44:29;;;;;;;15.20;12.60;;;10.20;99.90;;;;;;4996574;28;20549;-60
2021/11/20 07:47:00;;;;;;;15.93;11.23;;;10.20;99.90;;;;;;5013444;28;20449;-60
2021/11/20 07:49:37;;;;;;;15.40;11.03;;;10.10;99.90;;;;;;5012935;28;20468;-60
2021/11/20 07:52:07;;;;;;;15.27;12.20;;;10.10;99.90;;;;;;5013142;28;20441;-61
2021/11/20 07:55:01;;;;;;;15.83;11.80;;;10.20;99.90;;;;;;5023332;28;20494;-59
2021/11/20 07:57:43;;;;;;;13.43;10.40;;;10.20;99.90;;;;;;5015531;28;20968;-58
2021/11/20 08:00:17;;;;;;;14.43;11.00;;;10.30;99.90;;;;;;5033424;28;20475;-61
2021/11/20 08:02:45;;;;;;;13.07;10.20;;;10.30;99.90;;;;;;5034195;28;20421;-61
2021/11/20 08:05:34;;;;;;;14.63;10.33;;;10.20;99.90;;;;;;5018606;28;20489;-60
2021/11/20 08:08:20;;;;;;;11.40;9.73;;;10.20;99.90;;;;;;5013041;28;20464;-59
2021/11/20 08:11:05;;;;;;;14.60;11.00;;;10.20;99.90;;;;;;4996020;28;21014;-61
2021/11/20 08:13:35;;;;;;;13.10;10.23;;;10.20;99.90;;;;;;5012959;28;20449;-60
2021/11/20 08:16:29;;;;;;;17.33;10.77;;;10.20;99.90;;;;;;5013420;28;20477;-59
2021/11/20 08:19:20;;;;;;;14.07;10.40;;;10.20;99.90;;;;;;4984967;28;20532;-60
2021/11/20 08:22:01;;;;;;;17.13;11.33;;;10.30;99.90;;;;;;5012832;28;20842;-59
2021/11/20 08:24:35;;;;;;;14.23;10.20;;;10.30;99.90;;;;;;4995540;28;20472;-60
2021/11/20 08:27:07;;;;;;;13.77;10.20;;;10.30;99.90;;;;;;4996266;28;20463;-59
2021/11/20 08:29:45;;;;;;;13.90;10.40;;;10.30;99.90;;;;;;5011753;28;21017;-59
2021/11/20 08:32:15;;;;;;;15.50;10.30;;;10.20;99.90;;;;;;5031366;28;20439;-60
2021/11/20 08:35:08;;;;;;;16.40;11.27;;;10.20;99.90;;;;;;5002818;28;20515;-59
2021/11/20 08:37:58;;;;;;;16.27;11.20;;;10.20;99.90;;;;;;5013426;28;20449;-58
2021/11/20 08:40:44;;;;;;;13.90;10.30;;;10.30;99.90;;;;;;5012122;28;20497;-61
2021/11/20 08:43:14;;;;;;;14.40;11.17;;;10.30;99.90;;;;;;4995820;28;20501;-61
2021/11/20 08:45:44;;;;;;;17.33;10.90;;;10.30;99.90;;;;;;4995239;28;20485;-59
2021/11/20 08:48:16;;;;;;;13.93;10.57;;;10.30;99.90;;;;;;5012459;28;20429;-58
2021/11/20 08:50:49;;;;;;;14.30;11.93;;;10.40;99.90;;;;;;5011827;28;20852;-61
2021/11/20 08:53:17;;;;;;;15.20;11.33;;;10.40;99.90;;;;;;5013044;28;20993;-60
2021/11/20 08:55:46;;;;;;;15.60;11.27;;;10.40;99.90;;;;;;5011720;28;20465;-58
2021/11/20 08:58:36;;;;;;;14.93;11.73;;;10.50;99.90;;;;;;5015956;28;20445;-59
2021/11/20 09:01:09;;;;;;;16.33;12.07;;;10.50;99.90;;;;;;5012635;28;20463;-60
2021/11/20 09:03:56;;;;;;;16.27;11.43;;;10.50;99.90;;;;;;4995806;28;20797;-60
2021/11/20 09:06:33;;;;;;;15.43;11.37;;;10.50;99.90;;;;;;5010921;28;20481;-61
2021/11/20 09:09:07;;;;;;;17.10;11.93;;;10.50;99.90;;;;;;5013306;28;20547;-59
2021/11/20 09:11:41;;;;;;;14.60;11.40;;;10.50;99.90;;;;;;4995376;28;20547;-61
2021/11/20 09:14:12;;;;;;;18.27;11.00;;;10.50;99.90;;;;;;5010670;28;20874;-60
2021/11/20 09:16:58;;;;;;;16.10;11.67;;;10.60;99.90;;;;;;5011628;28;20453;-59
2021/11/20 09:19:31;;;;;;;13.40;10.67;;;10.50;99.90;;;;;;5017197;28;20440;-59
2021/11/20 09:22:00;;;;;;;16.10;11.90;;;10.50;99.90;;;;;;5005670;28;20501;-60
2021/11/20 09:24:55;;;;;;;15.60;11.60;;;10.60;99.90;;;;;;5012147;28;20540;-60
2021/11/20 09:27:49;;;;;;;15.20;11.80;;;10.60;99.90;;;;;;5004611;28;20963;-60
2021/11/20 09:30:21;;;;;;;15.43;11.57;;;10.60;99.90;;;;;;5014256;28;20981;-60
2021/11/20 09:32:52;;;;;;;15.50;11.40;;;10.60;99.90;;;;;;5014475;28;20469;-60
2021/11/20 09:35:36;;;;;;;12.90;10.43;;;10.60;99.90;;;;;;5025709;28;20506;-59
2021/11/20 09:38:24;;;;;;;18.13;12.13;;;10.60;99.90;;;;;;5011461;28;20475;-59
2021/11/20 09:40:56;;;;;;;22.07;12.90;;;10.60;99.90;;;;;;5010954;28;20557;-61
2021/11/20 09:43:27;;;;;;;15.30;11.83;;;10.60;99.90;;;;;;5012612;28;20475;-61
2021/11/20 09:46:05;;;;;;;13.50;10.80;;;10.60;99.90;;;;;;5011727;28;21094;-59
2021/11/20 09:48:36;;;;;;;13.50;11.73;;;10.60;99.90;;;;;;5012451;28;20482;-59
2021/11/20 09:51:21;;;;;;;19.77;13.10;;;10.70;99.90;;;;;;5010494;28;21078;-61
2021/11/20 09:53:55;;;;;;;16.30;11.67;;;10.60;99.90;;;;;;4994857;28;20437;-60
2021/11/20 09:56:40;;;;;;;15.30;11.20;;;10.70;99.90;;;;;;5011196;28;20488;-59
2021/11/20 09:59:20;;;;;;;15.80;11.20;;;10.70;99.90;;;;;;5011787;28;20426;-61
2021/11/20 10:01:52;;;;;;;11.80;9.43;;;10.60;99.90;;;;;;4994876;28;20480;-61
2021/11/20 10:04:26;;;;;;;15.67;10.13;;;10.60;99.90;;;;;;5011160;28;20435;-60
2021/11/20 10:07:10;;;;;;;14.23;10.40;;;10.60;99.90;;;;;;5031854;28;20498;-59
2021/11/20 10:09:46;;;;;;;15.50;11.30;;;10.60;99.90;;;;;;5031269;28;20496;-59
2021/11/20 10:12:22;;;;;;;13.73;11.10;;;10.60;99.90;;;;;;5024103;28;20448;-60
2021/11/20 10:14:54;;;;;;;14.43;10.70;;;10.70;99.90;;;;;;5013462;28;20851;-60
2021/11/20 10:17:35;;;;;;;16.10;10.97;;;10.70;99.90;;;;;;5027417;28;20872;-59
2021/11/20 10:20:22;;;;;;;21.80;12.60;;;10.80;99.90;;;;;;4996782;28;20456;-62
2021/11/20 10:22:56;;;;;;;17.03;12.53;;;10.80;99.90;;;;;;5047155;28;20472;-62
2021/11/20 10:25:33;;;;;;;13.50;9.80;;;10.80;99.90;;;;;;5028442;28;20473;-61
2021/11/20 10:28:10;;;;;;;14.80;10.90;;;10.80;99.90;;;;;;5035626;28;20466;-62
2021/11/20 10:30:48;;;;;;;14.87;10.90;;;10.90;99.90;;;;;;5032481;28;20464;-61
2021/11/20 10:33:20;;;;;;;13.70;11.03;;;10.80;99.90;;;;;;5045570;28;20985;-63
2021/11/20 10:35:52;;;;;;;13.43;10.13;;;10.90;99.90;;;;;;5040450;28;20564;-61
2021/11/20 10:38:29;;;;;;;15.10;11.47;;;10.90;99.90;;;;;;5027897;28;20436;-62
2021/11/20 10:41:00;;;;;;;18.13;11.77;;;10.90;99.90;;;;;;5040626;28;20478;-60
2021/11/20 10:43:37;;;;;;;14.77;10.33;;;10.80;99.90;;;;;;5015365;28;20449;-60
2021/11/20 10:46:21;;;;;;;16.70;11.83;;;10.80;99.90;;;;;;5042807;28;20475;-60
2021/11/20 10:49:03;;;;;;;17.10;11.53;;;10.70;99.90;;;;;;5050240;28;20435;-60
2021/11/20 10:51:50;;;;;;;16.70;11.50;;;10.70;99.90;;;;;;5047650;28;20466;-60
2021/11/20 10:55:01;;;;;;;18.83;12.43;;;10.60;99.90;;;;;;5031288;28;20432;-61
2021/11/20 10:57:54;;;;;;;16.20;11.53;;;10.60;99.90;;;;;;5011626;28;20465;-60
2021/11/20 11:00:31;;;;;;;16.33;11.53;;;10.70;99.90;;;;;;5024520;28;20459;-59
2021/11/20 11:03:27;;;;;;;17.77;12.17;;;10.60;99.90;;;;;;5036517;28;20433;-60
2021/11/20 11:06:32;;;;;;;17.67;12.10;;;10.70;99.90;;;;;;5028431;28;20486;-60
2021/11/20 11:09:08;;;;;;;21.70;12.60;;;10.70;99.90;;;;;;4998761;28;20939;-60
2021/11/20 11:11:40;;;;;;;14.80;11.87;;;10.70;99.90;;;;;;5010607;28;20479;-60
2021/11/20 11:14:51;;;;;;;14.90;12.17;;;10.70;99.90;;;;;;5021849;28;20495;-60
2021/11/20 11:17:30;;;;;;;16.03;11.77;;;10.80;99.90;;;;;;5031103;28;20474;-59
2021/11/20 11:20:03;;;;;;;15.53;10.60;;;10.70;99.90;;;;;;5010894;28;20470;-59
2021/11/20 11:22:35;;;;;;;19.80;12.30;;;10.70;99.90;;;;;;5035530;28;20458;-61
2021/11/20 11:25:15;;;;;;;15.40;11.30;;;10.80;99.90;;;;;;5050318;28;20452;-61
2021/11/20 11:28:05;;;;;;;16.80;11.80;;;10.80;99.90;;;;;;5025759;28;21044;-60
2021/11/20 11:30:39;;;;;;;18.40;13.47;;;10.80;99.90;;;;;;5025362;28;20479;-60
2021/11/20 11:33:07;;;;;;;16.10;12.53;;;10.70;99.90;;;;;;5014565;28;20473;-60
2021/11/20 11:35:43;;;;;;;20.77;12.70;;;10.80;99.90;;;;;;5042237;28;20471;-60
2021/11/20 11:38:48;;;;;;;17.53;11.40;;;10.80;99.90;;;;;;5025115;28;20522;-60
2021/11/20 11:41:22;;;;;;;23.73;13.60;;;10.70;99.90;;;;;;5034924;28;20492;-63
2021/11/20 11:46:17;;;;;;;19.53;11.83;;;10.90;99.90;;;;;;5052751;28;20616;-59
2021/11/20 11:49:11;;;;;;;28.13;13.03;;;11.00;99.90;;;;;;4988466;28;20439;-59
2021/11/20 11:51:55;;;;;;;19.90;13.43;;;10.90;99.90;;;;;;5008368;28;20465;-60
2021/11/20 11:54:35;;;;;;;17.20;12.37;;;10.90;99.90;;;;;;4988576;28;20426;-60
2021/11/20 11:57:23;;;;;;;18.60;12.70;;;10.90;99.90;;;;;;5005209;28;20466;-59
2021/11/20 12:00:02;;;;;;;16.57;11.93;;;10.90;99.90;;;;;;5001728;28;20480;-59
2021/11/20 12:02:48;;;;;;;15.67;11.20;;;10.80;99.90;;;;;;5028966;28;20432;-60
2021/11/20 12:05:40;;;;;;;18.03;11.50;;;10.70;99.90;;;;;;5025646;28;21001;-60
2021/11/20 12:08:36;;;;;;;13.43;10.60;;;10.70;99.90;;;;;;5006509;28;20470;-58
2021/11/20 12:11:09;;;;;;;16.47;12.23;;;10.70;99.90;;;;;;5008663;28;20477;-57
2021/11/20 12:14:19;;;;;;;17.73;11.30;;;10.80;99.90;;;;;;4992600;28;20438;-59
2021/11/20 12:16:53;;;;;;;17.17;11.63;;;10.90;99.90;;;;;;5037548;28;20469;-58
2021/11/20 12:19:37;;;;;;;14.07;11.00;;;10.80;99.90;;;;;;5029434;28;20440;-59
2021/11/20 12:22:17;;;;;;;15.80;11.13;;;10.90;99.90;;;;;;5035155;28;20791;-59
2021/11/20 12:24:52;;;;;;;18.13;12.00;;;10.90;99.90;;;;;;5028040;28;20547;-59
2021/11/20 12:27:34;;;;;;;20.33;14.97;;;10.90;99.90;;;;;;5033455;28;20886;-58
2021/11/20 12:30:19;;;;;;;16.47;12.10;;;10.90;99.90;;;;;;5046053;28;20467;-59
2021/11/20 12:33:22;;;;;;;17.30;12.33;;;10.90;99.90;;;;;;5034465;28;20534;-60
2021/11/20 12:36:23;;;;;;;25.80;13.97;;;10.90;99.90;;;;;;5020489;28;20469;-59
2021/11/20 12:39:06;;;;;;;20.93;13.97;;;10.90;99.90;;;;;;5009567;28;20792;-57
2021/11/20 12:41:55;;;;;;;19.60;13.33;;;10.60;99.90;;;;;;5041719;28;20443;-58
2021/11/20 12:44:45;;;;;;;19.40;13.07;;;10.60;99.90;;;;;;5027206;28;20559;-58
2021/11/20 12:47:25;;;;;;;18.20;12.70;;;10.70;99.90;;;;;;5021243;28;20458;-57
2021/11/20 12:50:09;;;;;;;16.70;12.37;;;10.80;99.90;;;;;;5004802;28;20521;-58
2021/11/20 12:52:52;;;;;;;18.53;13.50;;;10.90;99.90;;;;;;5018918;28;20497;-58
2021/11/20 12:55:40;;;;;;;19.10;13.10;;;10.80;99.90;;;;;;4993001;28;20478;-59
2021/11/20 12:58:16;;;;;;;23.40;15.13;;;10.70;99.90;;;;;;4990613;28;20444;-58
2021/11/20 13:00:49;;;;;;;17.73;13.60;;;10.70;99.90;;;;;;4977355;28;20477;-57
2021/11/20 13:03:31;;;;;;;20.33;13.50;;;10.70;99.90;;;;;;4992636;28;20432;-59
2021/11/20 13:06:02;;;;;;;18.53;14.20;;;10.70;99.90;;;;;;4984515;28;20900;-59
2021/11/20 13:08:34;;;;;;;23.07;15.27;;;10.80;99.90;;;;;;4986239;28;20856;-58
2021/11/20 13:11:08;;;;;;;21.50;16.00;;;10.80;99.90;;;;;;4986817;28;20475;-58
2021/11/20 13:13:45;;;;;;;21.73;14.60;;;10.70;99.90;;;;;;4986727;28;20449;-59
2021/11/20 13:16:31;;;;;;;20.83;16.93;;;10.60;99.90;;;;;;4973030;28;20502;-59